createdAt,value
2023-03-28T00:00:46.062Z,2.46
2023-03-28T00:03:25.358Z,2.45
2023-03-28T00:06:03.445Z,2.44
2023-03-28T00:08:39.628Z,2.42
2023-03-28T00:11:20.277Z,2.40
2023-03-28T00:13:58.169Z,2.38
2023-03-28T00:16:33.895Z,2.39
2023-03-28T00:19:08.508Z,2.36
2023-03-28T00:21:42.946Z,2.35
2023-03-28T00:24:17.525Z,2.33
2023-03-28T00:26:54.836Z,2.31
2023-03-28T00:29:33.856Z,2.31
2023-03-28T00:32:07.962Z,2.28
2023-03-28T00:34:41.830Z,2.29
2023-03-28T00:37:18.561Z,2.27
2023-03-28T00:39:51.774Z,2.27
2023-03-28T00:42:27.611Z,2.28
2023-03-28T00:44:59.943Z,2.24
2023-03-28T00:47:42.027Z,2.18
2023-03-28T00:50:20.242Z,2.14
2023-03-28T00:52:56.749Z,2.11
2023-03-28T00:55:33.055Z,2.10
2023-03-28T00:58:08.570Z,2.11
2023-03-28T01:00:41.608Z,2.08
2023-03-28T01:03:13.845Z,2.06
2023-03-28T01:05:48.499Z,2.01
2023-03-28T01:08:24.524Z,2.01
2023-03-28T01:10:59.084Z,2.01
2023-03-28T01:13:36.116Z,2.01
2023-03-28T01:16:12.986Z,2.00
2023-03-28T01:18:51.556Z,2.01
2023-03-28T01:21:55.000Z,2.02
2023-03-28T01:25:10.973Z,2.04
2023-03-28T01:27:47.392Z,2.01
2023-03-28T01:30:38.930Z,2.01
2023-03-28T01:33:42.010Z,2.02
2023-03-28T01:36:59.495Z,2.02
2023-03-28T01:39:41.123Z,2.01
2023-03-28T01:42:19.702Z,2.00
2023-03-28T01:44:56.477Z,2.02
2023-03-28T01:47:32.924Z,2.03
2023-03-28T01:50:12.753Z,2.03
2023-03-28T01:52:51.344Z,2.07
2023-03-28T01:55:27.224Z,2.13
2023-03-28T01:58:06.445Z,2.18
2023-03-28T02:00:46.749Z,2.24
2023-03-28T02:03:25.222Z,2.29
2023-03-28T02:05:59.739Z,2.35
2023-03-28T02:08:36.747Z,2.43
2023-03-28T02:11:11.663Z,2.46
2023-03-28T02:13:48.152Z,2.54
2023-03-28T02:16:23.360Z,2.62
2023-03-28T02:18:58.955Z,2.69
2023-03-28T02:21:37.693Z,2.75
2023-03-28T02:24:12.535Z,2.78
2023-03-28T02:26:47.619Z,2.80
2023-03-28T02:29:21.538Z,2.83
2023-03-28T02:31:53.407Z,2.88
2023-03-28T02:34:27.474Z,2.93
2023-03-28T02:37:08.205Z,2.98
2023-03-28T02:39:52.602Z,2.98
2023-03-28T02:42:51.386Z,3.03
2023-03-28T02:45:39.412Z,3.04
2023-03-28T02:48:18.130Z,3.03
2023-03-28T02:50:56.090Z,3.02
2023-03-28T02:53:34.145Z,2.99
2023-03-28T02:56:11.155Z,2.96
2023-03-28T02:58:49.834Z,2.94
2023-03-28T03:01:30.676Z,2.91
2023-03-28T03:04:05.990Z,2.88
2023-03-28T03:06:38.302Z,2.82
2023-03-28T03:09:10.298Z,2.84
2023-03-28T03:11:42.092Z,2.84
2023-03-28T03:14:15.216Z,2.87
2023-03-28T03:16:49.297Z,2.93
2023-03-28T03:19:23.211Z,3.00
2023-03-28T03:21:58.837Z,3.07
2023-03-28T03:24:32.331Z,3.15
2023-03-28T03:27:06.644Z,3.17
2023-03-28T03:29:39.787Z,3.20
2023-03-28T03:32:12.872Z,3.23
2023-03-28T03:34:45.649Z,3.23
2023-03-28T03:37:18.997Z,3.23
2023-03-28T03:39:51.833Z,3.23
2023-03-28T03:42:26.207Z,3.24
2023-03-28T03:44:59.639Z,3.22
2023-03-28T03:47:33.320Z,3.23
2023-03-28T03:50:05.918Z,3.26
2023-03-28T03:52:37.988Z,3.31
2023-03-28T03:55:11.801Z,3.33
2023-03-28T03:57:43.593Z,3.38
2023-03-28T04:00:18.921Z,3.42
2023-03-28T04:02:53.775Z,3.46
2023-03-28T04:05:27.185Z,3.49
2023-03-28T04:08:02.682Z,3.49
2023-03-28T04:10:34.502Z,3.52
2023-03-28T04:13:07.837Z,3.55
2023-03-28T04:15:41.920Z,3.60
2023-03-28T04:18:15.640Z,3.64
2023-03-28T04:20:49.600Z,3.69
2023-03-28T04:23:26.832Z,3.72
2023-03-28T04:26:03.464Z,3.78
2023-03-28T04:28:35.416Z,3.82
2023-03-28T04:31:13.009Z,3.86
2023-03-28T04:33:47.539Z,3.90
2023-03-28T04:36:25.603Z,3.90
2023-03-28T04:39:04.293Z,3.93
2023-03-28T04:41:37.784Z,3.99
2023-03-28T04:44:13.329Z,4.01
2023-03-28T04:46:46.587Z,4.05
2023-03-28T04:49:19.761Z,4.05
2023-03-28T04:51:55.557Z,4.03
2023-03-28T04:54:28.240Z,4.01
2023-03-28T04:57:04.984Z,3.97
2023-03-28T04:59:40.491Z,3.93
2023-03-28T05:02:13.775Z,3.90
2023-03-28T05:04:46.391Z,3.84
2023-03-28T05:07:22.553Z,3.80
2023-03-28T05:09:58.890Z,3.81
2023-03-28T05:12:37.073Z,3.82
2023-03-28T05:15:21.434Z,3.84
2023-03-28T05:17:58.760Z,3.87
2023-03-28T05:20:39.244Z,3.86
2023-03-28T05:23:17.287Z,3.87
2023-03-28T05:26:04.963Z,3.91
2023-03-28T05:28:37.158Z,3.96
2023-03-28T05:31:12.930Z,4.01
2023-03-28T05:33:47.694Z,4.06
2023-03-28T05:36:23.601Z,4.22
2023-03-28T05:38:58.061Z,4.36
2023-03-28T05:41:33.662Z,4.48
2023-03-28T05:44:05.607Z,4.55
2023-03-28T05:46:41.310Z,4.58
2023-03-28T05:49:13.358Z,4.59
2023-03-28T05:51:48.943Z,4.62
2023-03-28T05:54:25.965Z,4.65
2023-03-28T05:56:59.582Z,4.72
2023-03-28T05:59:32.590Z,4.82
2023-03-28T06:02:09.483Z,4.95
2023-03-28T06:04:42.698Z,5.06
2023-03-28T06:07:15.051Z,5.11
2023-03-28T06:09:49.558Z,5.07
2023-03-28T06:12:23.470Z,5.06
2023-03-28T06:14:57.238Z,5.11
2023-03-28T06:17:31.362Z,5.22
2023-03-28T06:20:07.354Z,5.30
2023-03-28T06:22:39.419Z,5.25
2023-03-28T06:25:13.525Z,5.14
2023-03-28T06:27:46.873Z,4.96
2023-03-28T06:30:21.033Z,4.83
2023-03-28T06:32:53.697Z,4.66
2023-03-28T06:35:26.267Z,4.34
2023-03-28T06:38:00.888Z,4.18
2023-03-28T06:40:36.888Z,4.09
2023-03-28T06:43:10.152Z,4.05
2023-03-28T06:45:43.195Z,4.01
2023-03-28T06:48:16.647Z,4.01
2023-03-28T06:50:51.569Z,3.99
2023-03-28T06:53:23.801Z,4.06
2023-03-28T06:55:56.597Z,4.25
2023-03-28T06:58:29.213Z,4.50
2023-03-28T07:01:05.802Z,4.76
2023-03-28T07:03:37.745Z,4.81
2023-03-28T07:06:11.536Z,4.94
2023-03-28T07:08:45.682Z,4.98
2023-03-28T07:11:18.992Z,5.02
2023-03-28T07:13:51.057Z,4.95
2023-03-28T07:16:24.810Z,5.00
2023-03-28T07:18:58.829Z,4.96
2023-03-28T07:21:32.161Z,4.93
2023-03-28T07:24:04.137Z,4.98
2023-03-28T07:26:37.704Z,5.10
2023-03-28T07:29:10.013Z,5.11
2023-03-28T07:31:42.718Z,4.93
2023-03-28T07:34:18.741Z,4.82
2023-03-28T07:36:54.574Z,4.80
2023-03-28T07:39:36.091Z,4.70
2023-03-28T07:42:20.322Z,4.50
2023-03-28T07:44:52.241Z,4.46
2023-03-28T07:47:24.382Z,4.52
2023-03-28T07:49:57.530Z,4.59
2023-03-28T07:52:29.421Z,4.66
2023-03-28T07:55:04.616Z,4.80
2023-03-28T07:57:38.745Z,4.89
2023-03-28T08:00:14.100Z,4.86
2023-03-28T08:02:47.981Z,4.91
2023-03-28T08:05:24.230Z,4.93
2023-03-28T08:07:57.263Z,4.91
2023-03-28T08:10:29.200Z,4.90
2023-03-28T08:13:02.690Z,4.90
2023-03-28T08:15:37.350Z,4.93
2023-03-28T08:18:12.553Z,5.05
2023-03-28T08:20:45.296Z,5.08
2023-03-28T08:23:18.634Z,5.05
2023-03-28T08:25:52.915Z,5.15
2023-03-28T08:28:24.811Z,5.29
2023-03-28T08:30:57.139Z,5.45
2023-03-28T08:33:32.906Z,5.31
2023-03-28T08:36:05.283Z,5.01
2023-03-28T08:38:39.553Z,4.88
2023-03-28T08:41:20.734Z,5.00
2023-03-28T08:44:03.920Z,5.22
2023-03-28T08:46:37.075Z,5.41
2023-03-28T08:49:15.249Z,5.57
2023-03-28T08:51:51.018Z,5.55
2023-03-28T08:54:28.220Z,5.55
2023-03-28T08:57:03.006Z,5.44
2023-03-28T08:59:47.564Z,5.31
2023-03-28T09:02:23.858Z,5.25
2023-03-28T09:05:11.904Z,5.28
2023-03-28T09:07:56.432Z,5.32
2023-03-28T09:10:31.971Z,5.35
2023-03-28T09:13:13.193Z,5.40
2023-03-28T09:15:55.205Z,5.48
2023-03-28T09:19:00.730Z,5.69
2023-03-28T09:21:41.140Z,5.86
2023-03-28T09:24:22.004Z,6.01
2023-03-28T09:27:02.479Z,6.04
2023-03-28T09:29:38.677Z,6.02
2023-03-28T09:32:17.415Z,5.97
2023-03-28T09:34:52.841Z,5.83
2023-03-28T09:37:41.096Z,5.64
2023-03-28T09:40:20.944Z,5.45
2023-03-28T09:43:09.197Z,5.28
2023-03-28T09:45:53.773Z,5.28
2023-03-28T09:48:30.609Z,5.17
2023-03-28T09:51:06.447Z,5.22
2023-03-28T09:53:42.505Z,5.44
2023-03-28T09:56:22.816Z,5.75
2023-03-28T09:58:57.568Z,6.07
2023-03-28T10:01:37.714Z,6.10
2023-03-28T10:04:15.869Z,5.95
2023-03-28T10:06:50.318Z,5.89
2023-03-28T10:09:26.252Z,5.86
2023-03-28T10:12:03.619Z,5.95
2023-03-28T10:14:37.925Z,6.03
2023-03-28T10:17:16.198Z,6.10
2023-03-28T10:19:52.313Z,6.26
2023-03-28T10:22:27.939Z,6.46
2023-03-28T10:25:00.610Z,6.63
2023-03-28T10:27:35.261Z,6.74
2023-03-28T10:30:22.567Z,6.86
2023-03-28T10:33:25.401Z,6.99
2023-03-28T10:36:03.998Z,6.98
2023-03-28T10:38:39.026Z,6.99
2023-03-28T10:41:21.487Z,7.13
2023-03-28T10:43:58.067Z,7.23
2023-03-28T10:46:36.169Z,7.05
2023-03-28T10:49:15.936Z,6.61
2023-03-28T10:51:52.414Z,6.36
2023-03-28T10:54:38.360Z,6.03
2023-03-28T10:57:15.512Z,5.89
2023-03-28T10:59:52.870Z,6.11
2023-03-28T11:02:51.052Z,6.32
2023-03-28T11:05:39.468Z,6.62
2023-03-28T11:08:31.500Z,6.98
2023-03-28T11:11:08.496Z,6.84
2023-03-28T11:13:46.851Z,6.46
2023-03-28T11:16:25.504Z,6.08
2023-03-28T11:19:05.785Z,5.78
2023-03-28T11:21:44.996Z,5.68
2023-03-28T11:24:26.129Z,5.63
2023-03-28T11:27:15.666Z,5.68
2023-03-28T11:29:51.909Z,5.81
2023-03-28T11:32:27.752Z,6.00
2023-03-28T11:35:06.575Z,6.22
2023-03-28T11:37:41.542Z,6.68
2023-03-28T11:40:25.274Z,7.06
2023-03-28T11:43:00.271Z,7.36
2023-03-28T11:45:49.523Z,7.68
2023-03-28T11:48:29.785Z,8.05
2023-03-28T11:51:05.806Z,8.41
2023-03-28T11:53:40.954Z,8.67
2023-03-28T11:56:17.164Z,8.61
2023-03-28T11:58:51.542Z,8.60
2023-03-28T12:01:28.356Z,8.61
2023-03-28T12:04:06.467Z,8.52
2023-03-28T12:06:55.842Z,8.34
2023-03-28T12:09:42.793Z,8.23
2023-03-28T12:12:17.683Z,7.96
2023-03-28T12:14:59.194Z,7.28
2023-03-28T12:17:35.652Z,6.28
2023-03-28T12:20:14.397Z,5.51
2023-03-28T12:22:54.142Z,5.25
2023-03-28T12:25:31.202Z,5.30
2023-03-28T12:28:10.269Z,5.51
2023-03-28T12:30:48.987Z,5.79
2023-03-28T12:33:28.077Z,6.25
2023-03-28T12:36:03.574Z,6.59
2023-03-28T12:38:40.982Z,6.64
2023-03-28T12:41:16.004Z,7.07
2023-03-28T12:43:53.491Z,7.39
2023-03-28T12:46:28.958Z,7.56
2023-03-28T12:49:11.595Z,7.54
2023-03-28T12:51:48.190Z,6.94
2023-03-28T12:54:31.080Z,5.96
2023-03-28T12:57:05.476Z,5.00
2023-03-28T12:59:58.120Z,4.47
2023-03-28T13:02:36.471Z,4.29
2023-03-28T13:05:18.835Z,4.24
2023-03-28T13:08:04.282Z,4.27
2023-03-28T13:10:42.821Z,4.47
2023-03-28T13:13:22.868Z,4.85
2023-03-28T13:16:08.066Z,5.37
2023-03-28T13:18:49.160Z,5.69
2023-03-28T13:21:45.105Z,5.81
2023-03-28T13:24:32.299Z,5.75
2023-03-28T13:27:08.001Z,5.56
2023-03-28T13:29:51.381Z,5.74
2023-03-28T13:32:25.873Z,6.06
2023-03-28T13:35:00.269Z,6.22
2023-03-28T13:37:52.729Z,6.12
2023-03-28T13:40:51.560Z,5.87
2023-03-28T13:43:29.884Z,5.71
2023-03-28T13:46:05.321Z,5.76
2023-03-28T13:48:43.482Z,6.13
2023-03-28T13:51:21.595Z,6.61
2023-03-28T13:53:55.060Z,6.90
2023-03-28T13:56:29.298Z,7.02
2023-03-28T13:59:03.489Z,7.29
2023-03-28T14:01:47.068Z,7.08
2023-03-28T14:04:24.844Z,6.87
2023-03-28T14:06:59.860Z,6.61
2023-03-28T14:09:36.758Z,6.14
2023-03-28T14:12:14.091Z,5.75
2023-03-28T14:14:49.436Z,5.59
2023-03-28T14:17:26.062Z,5.65
2023-03-28T14:20:03.142Z,5.48
2023-03-28T14:22:59.096Z,5.29
2023-03-28T14:25:33.649Z,5.30
2023-03-28T14:28:10.719Z,5.11
2023-03-28T14:30:45.027Z,4.82
2023-03-28T14:33:21.924Z,4.63
2023-03-28T14:36:01.798Z,4.48
2023-03-28T14:38:38.621Z,4.11
2023-03-28T14:41:19.263Z,3.47
2023-03-28T14:43:56.045Z,3.17
2023-03-28T14:46:30.170Z,3.75
2023-03-28T14:49:07.314Z,4.47
2023-03-28T14:51:46.696Z,5.03
2023-03-28T14:54:27.454Z,5.27
2023-03-28T14:57:05.000Z,5.50
2023-03-28T14:59:41.357Z,6.11
2023-03-28T15:02:22.435Z,6.40
2023-03-28T15:04:57.520Z,5.90
2023-03-28T15:07:35.423Z,5.43
2023-03-28T15:10:12.016Z,5.09
2023-03-28T15:12:49.323Z,4.94
2023-03-28T15:15:24.035Z,4.62
2023-03-28T15:18:03.386Z,4.18
2023-03-28T15:20:39.102Z,3.64
2023-03-28T15:23:18.900Z,3.26
2023-03-28T15:25:54.978Z,3.06
2023-03-28T15:28:31.756Z,3.04
2023-03-28T15:31:08.364Z,3.32
2023-03-28T15:33:41.241Z,4.16
2023-03-28T15:36:19.066Z,4.84
2023-03-28T15:39:04.241Z,5.43
2023-03-28T15:41:48.424Z,5.56
2023-03-28T15:44:29.252Z,6.11
2023-03-28T15:47:04.577Z,6.82
2023-03-28T15:49:39.429Z,6.88
2023-03-28T15:52:19.144Z,6.72
2023-03-28T15:54:53.228Z,6.49
2023-03-28T15:57:30.226Z,6.09
2023-03-28T16:00:06.936Z,5.87
2023-03-28T16:02:42.440Z,5.67
2023-03-28T16:05:35.652Z,5.50
2023-03-28T16:08:23.434Z,5.37
2023-03-28T16:10:57.792Z,5.27
2023-03-28T16:13:33.647Z,5.07
2023-03-28T16:16:09.094Z,4.79
2023-03-28T16:18:42.990Z,4.65
2023-03-28T16:21:16.523Z,4.44
2023-03-28T16:23:50.416Z,4.14
2023-03-28T16:26:25.121Z,3.88
2023-03-28T16:29:01.071Z,3.74
2023-03-28T16:31:36.653Z,3.68
2023-03-28T16:34:10.360Z,3.75
2023-03-28T16:36:43.337Z,3.69
2023-03-28T16:39:16.196Z,3.58
2023-03-28T16:41:49.937Z,3.62
2023-03-28T16:44:23.275Z,3.69
2023-03-28T16:46:58.023Z,3.70
2023-03-28T16:49:32.264Z,3.68
2023-03-28T16:52:05.333Z,3.63
2023-03-28T16:54:38.823Z,3.57
2023-03-28T16:57:12.842Z,3.45
2023-03-28T16:59:48.499Z,3.35
2023-03-28T17:02:21.211Z,3.22
2023-03-28T17:04:55.888Z,3.14
2023-03-28T17:07:30.411Z,3.12
2023-03-28T17:10:05.474Z,3.16
2023-03-28T17:12:43.346Z,3.13
2023-03-28T17:15:17.919Z,3.12
2023-03-28T17:17:54.880Z,3.11
2023-03-28T17:20:28.082Z,3.10
2023-03-28T17:23:02.595Z,3.12
2023-03-28T17:25:48.122Z,3.09
2023-03-28T17:28:27.980Z,3.07
2023-03-28T17:31:08.066Z,3.06
2023-03-28T17:33:43.507Z,3.07
2023-03-28T17:36:22.421Z,3.10
2023-03-28T17:39:02.099Z,3.10
2023-03-28T17:41:42.003Z,3.11
2023-03-28T17:44:15.725Z,3.08
2023-03-28T17:46:54.540Z,3.07
2023-03-28T17:49:28.281Z,3.06
2023-03-28T17:52:03.365Z,3.10
2023-03-28T17:54:37.296Z,3.13
2023-03-28T17:57:11.062Z,3.16
2023-03-28T17:59:46.345Z,3.18
2023-03-28T18:02:20.397Z,3.17
2023-03-28T18:04:53.831Z,3.13
2023-03-28T18:07:27.188Z,3.11
2023-03-28T18:10:01.533Z,3.07
2023-03-28T18:12:35.566Z,3.07
2023-03-28T18:15:10.873Z,3.05
2023-03-28T18:17:44.669Z,3.04
2023-03-28T18:20:17.584Z,3.01
2023-03-28T18:22:51.492Z,3.02
2023-03-28T18:25:24.013Z,3.05
2023-03-28T18:27:57.823Z,3.08
2023-03-28T18:30:31.901Z,3.09
2023-03-28T18:33:06.355Z,3.10
2023-03-28T18:35:39.538Z,3.10
2023-03-28T18:38:18.351Z,3.10
2023-03-28T18:40:55.184Z,3.03
2023-03-28T18:43:30.299Z,2.97
2023-03-28T18:46:09.404Z,2.92
2023-03-28T18:48:42.196Z,2.90
2023-03-28T18:51:16.927Z,2.89
2023-03-28T18:53:51.050Z,2.85
2023-03-28T18:56:26.027Z,2.84
2023-03-28T18:59:00.056Z,2.80
2023-03-28T19:01:35.971Z,2.78
2023-03-28T19:04:09.300Z,2.74
2023-03-28T19:06:42.439Z,2.73
2023-03-28T19:09:18.342Z,2.73
2023-03-28T19:11:55.192Z,2.73
2023-03-28T19:14:29.802Z,2.75
2023-03-28T19:17:02.892Z,2.74
2023-03-28T19:19:37.603Z,2.73
2023-03-28T19:22:11.853Z,2.73
2023-03-28T19:24:46.427Z,2.71
2023-03-28T19:27:21.352Z,2.69
2023-03-28T19:29:54.990Z,2.65
2023-03-28T19:32:28.137Z,2.62
2023-03-28T19:35:08.655Z,2.60
2023-03-28T19:37:42.028Z,2.60
2023-03-28T19:40:17.564Z,2.58
2023-03-28T19:42:49.805Z,2.59
2023-03-28T19:45:23.124Z,2.55
2023-03-28T19:48:00.217Z,2.52
2023-03-28T19:50:38.651Z,2.51
2023-03-28T19:53:13.531Z,2.49
2023-03-28T19:55:47.510Z,2.50
2023-03-28T19:58:19.830Z,2.50
2023-03-28T20:00:54.280Z,2.51
2023-03-28T20:03:28.343Z,2.50
2023-03-28T20:06:07.803Z,2.48
2023-03-28T20:08:42.863Z,2.47
2023-03-28T20:11:16.950Z,2.48
2023-03-28T20:13:51.896Z,2.48
2023-03-28T20:16:26.236Z,2.49
2023-03-28T20:19:01.081Z,2.47
2023-03-28T20:21:35.262Z,2.48
2023-03-28T20:24:10.981Z,2.47
2023-03-28T20:26:43.474Z,2.47
2023-03-28T20:29:15.313Z,2.43
2023-03-28T20:31:48.685Z,2.41
2023-03-28T20:34:26.358Z,2.39
2023-03-28T20:37:01.304Z,2.36
2023-03-28T20:39:37.061Z,2.32
2023-03-28T20:42:12.918Z,2.29
2023-03-28T20:44:45.050Z,2.25
2023-03-28T20:47:25.419Z,2.21
2023-03-28T20:50:07.147Z,2.19
2023-03-28T20:52:42.618Z,2.15
2023-03-28T20:55:19.814Z,2.13
2023-03-28T20:57:58.660Z,2.10
2023-03-28T21:00:37.772Z,2.06
2023-03-28T21:03:12.310Z,2.03
2023-03-28T21:05:46.848Z,2.01
2023-03-28T21:08:21.541Z,2.01
2023-03-28T21:10:58.669Z,2.00
2023-03-28T21:13:34.042Z,1.99
2023-03-28T21:16:08.696Z,1.97
2023-03-28T21:18:42.725Z,1.94
2023-03-28T21:21:16.939Z,1.94
2023-03-28T21:23:49.668Z,1.94
2023-03-28T21:26:23.331Z,1.91
2023-03-28T21:28:56.955Z,1.89
2023-03-28T21:31:30.913Z,1.87
2023-03-28T21:34:05.179Z,1.85
2023-03-28T21:36:37.234Z,1.83
2023-03-28T21:39:11.040Z,1.81
2023-03-28T21:41:43.731Z,1.79
2023-03-28T21:44:19.007Z,1.77
2023-03-28T21:46:55.356Z,1.75
2023-03-28T21:49:30.629Z,1.71
2023-03-28T21:52:03.197Z,1.72
2023-03-28T21:54:38.855Z,1.70
2023-03-28T21:57:13.751Z,1.67
2023-03-28T21:59:47.949Z,1.64
2023-03-28T22:02:25.134Z,1.62
2023-03-28T22:05:01.240Z,1.61
2023-03-28T22:07:34.200Z,1.61
2023-03-28T22:10:08.383Z,1.60
2023-03-28T22:12:44.897Z,1.56
2023-03-28T22:15:19.691Z,1.53
2023-03-28T22:17:58.518Z,1.52
2023-03-28T22:20:31.761Z,1.50
2023-03-28T22:23:04.469Z,1.49
2023-03-28T22:25:39.940Z,1.48
2023-03-28T22:28:14.045Z,1.46
2023-03-28T22:33:43.319Z,1.42
2023-03-28T22:36:16.450Z,1.40
2023-03-28T22:38:49.876Z,1.39
2023-03-28T22:41:23.888Z,1.39
2023-03-28T22:43:58.683Z,1.37
2023-03-28T22:46:32.222Z,1.36
2023-03-28T22:49:05.512Z,1.34
2023-03-28T22:51:46.351Z,1.34
2023-03-28T22:54:22.909Z,1.34
2023-03-28T22:57:00.533Z,1.32
2023-03-28T22:59:33.884Z,1.32
2023-03-28T23:02:08.027Z,1.31
2023-03-28T23:04:40.355Z,1.31
2023-03-28T23:07:13.619Z,1.29
2023-03-28T23:09:46.389Z,1.28
2023-03-28T23:12:18.967Z,1.27
2023-03-28T23:14:53.698Z,1.25
2023-03-28T23:17:31.438Z,1.25
2023-03-28T23:20:07.245Z,1.23
2023-03-28T23:22:41.242Z,1.21
2023-03-28T23:25:14.910Z,1.20
2023-03-28T23:27:48.210Z,1.18
2023-03-28T23:30:21.229Z,1.18
2023-03-28T23:32:54.147Z,1.17
2023-03-28T23:35:27.335Z,1.15
2023-03-28T23:38:00.105Z,1.12
2023-03-28T23:40:34.444Z,1.10
2023-03-28T23:43:09.894Z,1.07
2023-03-28T23:45:43.845Z,1.02
2023-03-28T23:48:16.873Z,0.98
2023-03-28T23:50:48.712Z,0.94
2023-03-28T23:53:22.836Z,0.92
2023-03-28T23:55:55.103Z,0.90
2023-03-28T23:58:27.004Z,0.88
